Latest Weather Observations for Double Island Point

IDQ60801

Issued at 6:02 pm EST Monday 8 February 2016 (issued every 30 minutes, with the page automatically refreshed every 10 minutes)

About weather observations | Map of weather stations | Latest weather observations for QLD | Other Formats
Station Details ID: 040068 Name: DOUBLE ISLAND POINT LIGHTHOUSE Lat: -25.93 Lon: 153.19 Height: 95.64 m
Data from the previous 72 hours. | See also: Recent months at Double Island Point
Date/Time
EST
Temp
°C
App
Temp
°C
Dew
Point
Rel
Hum
%
Delta-T
°C
Wind Press
QNH
hPa
Press
MSL
hPa
Rain
since 9 am
mm
Dir
 
Spd
km/h
Gust
km/h
Spd
kts
Gust
kts
08/06:00pm 24.4 19.0 18.3 69 3.9 SE 44 50 24 27 1012.6 1012.1 0.0
08/05:30pm 24.7 18.9 18.4 68 4.0 SE 46 54 25 29 1012.3 1011.8 0.0
08/05:00pm 24.9 19.3 17.9 65 4.4 SE 44 54 24 29 1012.0 1011.5 0.0
08/04:30pm 24.9 21.4 18.8 69 3.9 SE 35 41 19 22 1012.2 1011.7 0.0
08/04:00pm 24.9 19.9 18.8 69 3.9 SE 43 50 23 27 1012.2 1011.7 0.0
08/03:30pm 24.5 19.1 19.1 72 3.5 SE 46 54 25 29 1012.4 1011.9 0.0
08/03:00pm 23.7 18.7 17.9 70 3.6 SE 41 52 22 28 1012.7 1012.2 0.0
08/02:30pm 25.3 21.0 18.7 67 4.2 SSE 39 46 21 25 1012.8 1012.3 0.0
08/02:00pm 23.2 17.6 17.9 72 3.3 SSE 44 54 24 29 1013.1 1012.6 0.0
08/01:30pm 25.6 20.8 18.3 64 4.6 SSE 41 50 22 27 1013.3 1012.8 0.0
08/01:00pm 25.8 21.0 19.2 67 4.3 SSE 43 50 23 27 1013.7 1013.1 0.0
08/12:30pm 25.6 20.5 18.5 65 4.5 SSE 43 50 23 27 1013.7 1013.1 0.0
08/12:00pm 24.6 20.4 19.0 71 3.6 SSE 39 50 21 27 1014.1 1013.5 0.0
08/11:30am 24.7 20.2 20.0 75 3.1 SSE 43 50 23 27 1014.1 1013.5 0.0
08/11:00am 25.4 20.6 19.3 69 3.9 SSE 43 54 23 29 1014.2 1013.6 0.0
08/10:30am 25.7 20.6 18.6 65 4.5 SE 43 50 23 27 1014.4 1013.8 0.0
08/10:00am 26.3 20.5 17.4 58 5.6 SE 44 50 24 27 1014.4 1013.8 0.0
08/09:30am 26.1 20.0 16.6 55 5.9 SE 44 52 24 28 1014.4 1013.8 0.0
08/09:00am 25.7 19.8 16.8 58 5.5 SE 43 48 23 26 1014.5 1013.9 0.0
08/08:30am 25.4 18.9 16.5 58 5.5 SSE 46 52 25 28 1014.3 1013.7 0.0
08/08:00am 25.4 19.5 17.1 60 5.2 SE 44 52 24 28 1014.4 1013.8 0.0
08/07:30am 24.3 17.9 16.8 63 4.6 SE 46 52 25 28 1014.2 1013.6 0.0
08/07:00am 25.0 19.1 16.7 60 5.1 SE 43 50 23 27 1014.0 1013.4 0.0
08/06:30am 24.5 18.2 16.2 60 5.1 SE 44 50 24 27 1013.6 1013.0 0.0
08/06:00am 24.2 18.7 17.7 67 4.1 SE 43 50 23 27 1013.3 1012.8 0.0
08/05:30am 23.9 17.3 16.4 63 4.6 SE 46 52 25 28 1013.0 1012.5 0.0
08/05:00am 23.9 17.5 16.9 65 4.3 SE 46 54 25 29 1012.7 1012.2 0.0
08/04:30am 23.9 16.6 16.4 63 4.6 SSE 50 56 27 30 1012.5 1012.0 0.0
08/04:00am 23.9 17.8 17.6 68 3.9 SE 46 56 25 30 1012.5 1012.0 0.0
08/03:30am 24.0 18.2 18.2 70 3.7 SE 46 56 25 30 1012.6 1012.1 0.0
08/03:00am 23.9 17.5 17.9 69 3.8 SE 48 56 26 30 1012.5 1012.0 0.0
08/02:30am 24.0 17.4 18.2 70 3.7 SE 50 57 27 31 1012.5 1012.0 0.0
08/02:00am 24.0 17.3 18.0 69 3.8 SE 50 56 27 30 1012.8 1012.3 0.0
08/01:30am 24.1 18.0 18.5 71 3.6 SE 48 56 26 30 1012.9 1012.4 0.0
08/01:00am 24.1 18.0 18.5 71 3.6 SE 48 56 26 30 1013.1 1012.6 0.0
08/12:30am 24.2 17.7 18.4 70 3.7 SE 50 56 27 30 1013.5 1012.9 0.0
08/12:00am 24.3 18.1 19.1 73 3.3 SE 50 56 27 30 1013.8 1013.2 0.0
 
Date/Time
EST
Temp
°C
App
Temp
°C
Dew
Point
Rel
Hum
%
Delta-T
°C
Wind Press
QNH
hPa
Press
MSL
hPa
Rain
since 9 am
mm
Dir
 
Spd
km/h
Gust
km/h
Spd
kts
Gust
kts
07/11:30pm 24.3 17.9 18.7 71 3.6 SE 50 56 27 30 1014.0 1013.4 0.0
07/11:00pm 24.4 18.4 18.6 70 3.7 SE 48 57 26 31 1014.2 1013.6 0.0
07/10:30pm 24.3 18.2 19.4 74 3.2 SE 50 57 27 31 1014.2 1013.6 0.0
07/10:00pm 24.4 18.7 20.1 77 2.8 SE 50 57 27 31 1013.8 1013.2 0.0
07/09:30pm 24.4 17.8 19.9 76 2.9 SE 54 61 29 33 1013.8 1013.2 0.0
07/09:00pm 24.6 17.2 19.0 71 3.6 SE 56 63 30 34 1013.6 1013.0 0.0
07/08:30pm 24.5 17.2 19.3 73 3.3 SE 56 63 30 34 1013.2 1012.7 0.0
07/08:00pm 24.4 17.1 19.5 74 3.2 SE 57 63 31 34 1013.1 1012.6 0.0
07/07:30pm 23.7 19.3 20.2 81 2.3 SSE 43 50 23 27 1013.0 1012.5 0.0
07/07:08pm 22.9 16.4 19.3 80 2.3 SSE 52 70 28 38 1012.5 1012.0 0.0
07/07:00pm 23.1 17.9 20.4 85 1.8 SSE 48 59 26 32 1012.6 1012.1 0.0
07/06:30pm 23.9 18.4 20.6 82 2.2 SSE 50 61 27 33 1012.4 1011.9 0.0
07/06:00pm 23.9 16.9 20.2 80 2.4 SSE 57 67 31 36 1011.7 1011.2 0.0
07/05:30pm 24.0 17.6 20.3 80 2.4 SSE 54 63 29 34 1011.5 1011.0 0.0
07/05:00pm 23.7 18.4 20.2 81 2.3 SSE 48 59 26 32 1011.3 1010.8 0.0
07/04:30pm 23.5 19.3 20.6 84 1.9 SSE 43 56 23 30 1011.2 1010.7 0.0
07/04:00pm 23.9 18.6 21.0 84 1.9 SSE 50 59 27 32 1011.1 1010.6 0.0
07/03:30pm 24.2 18.7 20.5 80 2.4 SSE 50 59 27 32 1010.8 1010.3 0.0
07/03:00pm 24.3 18.1 20.8 81 2.3 SSE 54 69 29 37 1010.7 1010.2 0.0
07/02:30pm 25.1 20.8 21.4 80 2.5 SSE 46 57 25 31 1010.9 1010.4 0.0
07/02:00pm 24.7 19.3 20.8 79 2.6 SSE 50 61 27 33 1011.0 1010.5 0.0
07/01:30pm 25.0 19.1 19.8 73 3.4 SE 50 57 27 31 1011.7 1011.2 0.0
07/01:00pm 26.4 22.0 20.5 70 3.9 SE 44 50 24 27 1011.7 1011.2 0.0
07/12:30pm 26.1 21.8 20.4 71 3.7 SE 43 50 23 27 1012.1 1011.6 0.0
07/12:00pm 26.4 21.5 20.3 69 4.0 SE 46 52 25 28 1011.9 1011.4 0.0
07/11:30am 26.1 21.7 20.4 71 3.7 SE 44 52 24 28 1011.9 1011.4 0.0
07/11:00am 25.0 20.3 20.7 77 2.8 SE 46 54 25 29 1011.9 1011.4 0.0
07/10:30am 25.6 20.0 20.4 73 3.4 SE 50 56 27 30 1011.8 1011.3 0.0
07/10:00am 25.2 20.6 20.9 77 2.8 SE 46 54 25 29 1012.0 1011.5 0.0
07/09:30am 24.9 19.4 20.6 77 2.8 SE 50 56 27 30 1011.8 1011.3 0.0
07/09:00am 24.9 18.9 20.4 76 2.9 SE 52 57 28 31 1011.8 1011.3 0.2
07/08:30am 24.9 18.9 20.4 76 2.9 SE 52 57 28 31 1011.6 1011.1 0.2
07/08:00am 23.4 17.3 20.2 82 2.1 SE 52 59 28 32 1011.6 1011.1 0.2
07/07:30am 24.8 20.5 20.7 78 2.7 SE 44 54 24 29 1011.4 1010.9 0.2
07/07:00am 25.1 20.4 20.6 76 3.0 SE 46 52 25 28 1011.2 1010.7 0.2
07/06:30am 24.8 19.7 19.8 74 3.2 SE 46 54 25 29 1011.0 1010.5 0.2
07/06:00am 24.5 18.9 19.6 74 3.2 SE 48 54 26 29 1010.8 1010.3 0.2
07/05:30am 24.5 19.6 20.2 77 2.8 SE 46 54 25 29 1010.3 1009.8 0.2
07/05:00am 24.6 19.4 20.5 78 2.7 SE 48 54 26 29 1009.9 1009.4 0.2
07/04:30am 24.5 19.5 20.0 76 2.9 SE 46 52 25 28 1009.8 1009.3 0.2
07/04:00am 24.5 20.0 20.0 76 2.9 SE 43 48 23 26 1009.7 1009.2 0.2
07/03:30am 24.5 19.9 20.0 76 2.9 SE 44 50 24 27 1009.6 1009.1 0.2
07/03:00am 24.4 19.9 20.3 78 2.7 SE 44 48 24 26 1009.3 1008.8 0.2
07/02:30am 24.5 20.0 19.8 75 3.0 SE 43 46 23 25 1009.5 1009.0 0.2
07/02:00am 24.5 20.5 20.2 77 2.8 SE 41 44 22 24 1009.6 1009.1 0.2
07/01:30am 24.5 20.0 20.0 76 2.9 SE 43 46 23 25 1009.7 1009.2 0.2
07/01:00am 24.6 20.7 20.3 77 2.8 SE 41 48 22 26 1010.2 1009.7 0.2
07/12:30am 24.6 20.3 20.3 77 2.8 SE 43 48 23 26 1010.4 1009.9 0.2
07/12:00am 24.6 20.1 20.3 77 2.8 SE 44 50 24 27 1010.8 1010.3 0.2
 
Date/Time
EST
Temp
°C
App
Temp
°C
Dew
Point
Rel
Hum
%
Delta-T
°C
Wind Press
QNH
hPa
Press
MSL
hPa
Rain
since 9 am
mm
Dir
 
Spd
km/h
Gust
km/h
Spd
kts
Gust
kts
06/11:30pm 24.7 19.8 20.2 76 2.9 SE 46 52 25 28 1010.8 1010.3 0.2
06/11:00pm 24.7 20.2 20.2 76 2.9 ESE 44 52 24 28 1011.0 1010.5 0.2
06/10:30pm 24.7 20.2 20.2 76 2.9 ESE 44 52 24 28 1011.1 1010.6 0.2
06/10:00pm 24.6 19.8 20.5 78 2.7 SE 46 54 25 29 1011.4 1010.9 0.2
06/09:30pm 24.7 20.4 20.4 77 2.8 ESE 43 50 23 27 1011.4 1010.9 0.2
06/09:00pm 24.6 19.7 20.3 77 2.8 SE 46 54 25 29 1011.1 1010.6 0.2
06/08:30pm 24.3 19.8 20.2 78 2.7 ESE 44 54 24 29 1010.9 1010.4 0.2
06/08:00pm 24.3 20.0 20.4 79 2.5 ESE 43 50 23 27 1010.6 1010.1 0.2
06/07:36pm 23.4 19.5 20.3 83 2.0 ESE 41 59 22 32 1010.5 1010.0 0.2
06/07:30pm 22.7 17.7 19.3 81 2.2 ESE 44 59 24 32 1010.5 1010.0 0.2
06/07:00pm 24.7 20.3 20.2 76 2.9 ESE 43 50 23 27 1010.0 1009.5 0.0
06/06:30pm 24.7 20.3 20.2 76 2.9 SE 43 52 23 28 1009.5 1009.0 0.0
06/06:00pm 24.8 20.0 20.5 77 2.8 SE 46 54 25 29 1009.1 1008.6 0.0
06/05:30pm 24.9 19.6 20.2 75 3.1 SE 48 56 26 30 1008.6 1008.1 0.0
06/05:00pm 24.9 19.4 19.9 74 3.3 ESE 48 56 26 30 1008.1 1007.6 0.0
06/04:30pm 24.7 18.9 20.0 75 3.1 SE 50 56 27 30 1008.0 1007.5 0.0
06/04:00pm 24.9 20.2 20.6 77 2.8 ESE 46 57 25 31 1008.1 1007.6 0.0
06/03:30pm 25.1 20.5 20.1 74 3.3 ESE 44 52 24 28 1008.2 1007.7 0.0
06/03:00pm 25.6 21.2 20.6 74 3.3 ESE 44 54 24 29 1008.2 1007.7 0.0
06/02:30pm 25.5 21.1 20.5 74 3.3 SE 44 50 24 27 1008.4 1007.9 0.0
06/02:00pm 25.4 20.5 20.2 73 3.4 SE 46 52 25 28 1008.5 1008.0 0.0
06/01:30pm 25.2 20.4 20.5 75 3.1 SE 46 54 25 29 1008.6 1008.1 0.0
06/01:00pm 25.4 20.7 20.6 75 3.2 SE 46 52 25 28 1008.8 1008.3 0.0
06/12:30pm 25.3 19.9 20.1 73 3.4 SE 48 54 26 29 1008.8 1008.3 0.0
06/12:00pm 25.4 20.3 20.6 75 3.2 SE 48 54 26 29 1009.0 1008.5 0.0
06/11:30am 25.5 20.8 20.7 75 3.2 SE 46 54 25 29 1009.2 1008.7 0.0
06/11:00am 25.6 20.9 20.6 74 3.3 SE 46 54 25 29 1009.6 1009.1 0.0
06/10:30am 25.2 20.5 20.7 76 3.0 SE 46 52 25 28 1009.6 1009.1 0.0
06/10:00am 25.2 20.6 20.9 77 2.8 SE 46 52 25 28 1009.7 1009.2 0.0
06/09:30am 24.5 20.4 20.8 80 2.4 ESE 43 50 23 27 1009.8 1009.3 0.0
06/09:00am 24.6 20.5 20.7 79 2.6 ESE 43 52 23 28 1009.8 1009.3 0.6
06/08:30am 25.0 20.2 20.5 76 2.9 ESE 46 56 25 30 1009.5 1009.0 0.6
06/08:00am 24.9 20.5 20.6 77 2.8 ESE 44 56 24 30 1009.3 1008.8 0.6
06/07:30am 23.8 18.4 19.3 76 2.9 ESE 46 59 25 32 1009.1 1008.6 0.6
06/07:00am 24.4 19.5 20.3 78 2.7 ESE 46 56 25 30 1008.8 1008.3 0.6
06/06:30am 24.2 19.4 20.5 80 2.4 ESE 46 65 25 35 1008.2 1007.7 0.6
06/06:00am 24.4 19.7 20.7 80 2.4 ESE 46 54 25 29 1007.9 1007.4 0.6
06/05:30am 24.5 18.9 20.4 78 2.7 ESE 50 57 27 31 1007.4 1006.9 0.6
06/05:00am 24.4 19.2 20.5 79 2.6 ESE 48 56 26 30 1007.1 1006.6 0.6
06/04:30am 24.5 19.7 20.4 78 2.7 ESE 46 54 25 29 1006.9 1006.4 0.6
06/04:00am 24.6 20.4 20.9 80 2.4 SE 44 56 24 30 1007.0 1006.5 0.6
06/03:30am 24.6 19.4 20.5 78 2.7 SE 48 54 26 29 1006.7 1006.2 0.6
06/03:00am 24.5 19.3 20.4 78 2.7 SE 48 56 26 30 1006.5 1005.9 0.6
06/02:30am 24.6 19.7 21.1 81 2.3 SE 48 56 26 30 1006.5 1005.9 0.6
06/02:00am 24.5 19.6 21.0 81 2.3 SE 48 57 26 31 1006.9 1006.4 0.6
06/01:30am 24.6 19.6 20.9 80 2.4 SE 48 57 26 31 1007.0 1006.5 0.6
06/01:00am 23.9 19.0 21.0 84 1.9 SE 48 61 26 33 1007.3 1006.8 0.6
06/12:30am 22.6 16.4 19.9 85 1.7 SE 52 63 28 34 1007.5 1007.0 0.6
06/12:00am 24.0 16.9 20.1 79 2.5 SE 57 67 31 36 1008.0 1007.5 0.6
 
Date/Time
EST
Temp
°C
App
Temp
°C
Dew
Point
Rel
Hum
%
Delta-T
°C
Wind Press
QNH
hPa
Press
MSL
hPa
Rain
since 9 am
mm
Dir
 
Spd
km/h
Gust
km/h
Spd
kts
Gust
kts
05/11:30pm 23.9 18.5 20.8 83 2.0 ESE 50 57 27 31 1008.5 1008.0 0.6
05/11:00pm 23.2 16.6 20.7 86 1.6 SE 56 70 30 38 1008.7 1008.2 0.6
05/10:30pm 24.0 18.7 20.9 83 2.0 SE 50 61 27 33 1008.8 1008.3 0.6
05/10:00pm 23.5 17.5 20.4 83 2.0 SE 52 61 28 33 1008.9 1008.4 0.6
05/09:30pm 24.4 19.6 21.3 83 2.1 ESE 48 56 26 30 1008.9 1008.4 0.4
05/09:00pm 23.9 18.5 20.8 83 2.0 SE 50 57 27 31 1008.9 1008.4 0.4
05/08:30pm 24.6 19.7 21.1 81 2.3 SE 48 57 26 31 1008.6 1008.1 0.4
05/08:00pm 24.5 16.9 20.6 79 2.6 SE 61 72 33 39 1008.2 1007.7 0.4
05/07:30pm 24.7 18.3 21.0 80 2.4 SE 56 65 30 35 1007.7 1007.2 0.4
05/07:00pm 22.9 17.0 20.6 87 1.5 SE 52 65 28 35 1007.4 1006.9 0.4
05/06:30pm 22.8 15.2 19.8 83 1.9 SSE 59 78 32 42 1006.6 1006.0 0.4
05/06:29pm 23.2 16.2 20.2 83 1.9 SSE 57 78 31 42 1006.8 1006.3 0.4

Other Formats:

Comma delimited format used in spreadsheet applications
http://www.bom.gov.au/fwo/IDQ60801/IDQ60801.94584.axf

JavaScript Object Notation format (JSON) in row-major order
http://www.bom.gov.au/fwo/IDQ60801/IDQ60801.94584.json